Flight Briefing for CPX308

Departure Arrival
Theodore Francis Green State Airport (KPVD)
Click to view FAA NOTAMS
Chicago/Rockford International Airport (KRFD)
Click to view FAA NOTAMS
Departure Time Arrival Time
N/A N/A
Aircraft Distance
B767-300BDSF 790nm
Departure METAR Arrival METAR
KPVD 152022Z 18012KT 10SM -RA BKN037 BKN047 BKN090 10/09 A2968 RMK AO2 TSB1958E19 TS MOV NE P0005 T01000089 KRFD 151954Z 29012KT 10SM SCT250 M09/M15 A3001 RMK AO2 SLP177 T10941150
Suggested Route
BAF HNK NUGNT DJB J60 JOT V171 RFD


View recent IFR Routes data
Notes



Charts and Procedures

Charts for KPVD
No chart available
Charts for KRFD
No chart available

Ventusky Weather